createdAt,value
2017-02-09T00:00:36.633Z,90.06
2017-02-09T00:01:17.208Z,90.06
2017-02-09T00:01:57.836Z,90.25
2017-02-09T00:02:38.488Z,90.16
2017-02-09T00:03:19.146Z,90.06
2017-02-09T00:03:59.797Z,89.87
2017-02-09T00:04:40.366Z,90.06
2017-02-09T00:05:21.018Z,89.87
2017-02-09T00:06:01.597Z,90.06
2017-02-09T00:06:42.212Z,90.06
2017-02-09T00:07:22.757Z,90.35
2017-02-09T00:08:03.430Z,90.35
2017-02-09T00:08:44.121Z,90.06
2017-02-09T00:09:24.722Z,90.06
2017-02-09T00:10:05.290Z,90.06
2017-02-09T00:10:45.952Z,90.35
2017-02-09T00:11:27.596Z,90.06
2017-02-09T00:12:08.161Z,90.06
2017-02-09T00:12:48.818Z,89.87
2017-02-09T00:13:29.450Z,90.06
2017-02-09T00:14:10.041Z,90.16
2017-02-09T00:14:50.667Z,89.97
2017-02-09T00:15:31.303Z,90.25
2017-02-09T00:16:11.899Z,90.35
2017-02-09T00:16:52.540Z,90.06
2017-02-09T00:17:33.156Z,90.16
2017-02-09T00:18:13.726Z,90.06
2017-02-09T00:18:54.286Z,90.06
2017-02-09T00:19:34.922Z,90.35
2017-02-09T00:20:15.572Z,90.06
2017-02-09T00:20:56.218Z,90.06
2017-02-09T00:21:36.878Z,90.06
2017-02-09T00:22:17.523Z,89.97
2017-02-09T00:22:58.183Z,90.06
2017-02-09T00:23:38.840Z,90.16
2017-02-09T00:24:19.490Z,90.16
2017-02-09T00:25:00.053Z,90.06
2017-02-09T00:25:40.697Z,90.06
2017-02-09T00:26:21.289Z,89.97
2017-02-09T00:27:01.890Z,90.16
2017-02-09T00:27:42.462Z,90.06
2017-02-09T00:28:23.100Z,90.06
2017-02-09T00:29:03.709Z,90.16
2017-02-09T00:29:44.282Z,89.97
2017-02-09T00:30:24.877Z,90.16
2017-02-09T00:31:05.522Z,89.97
2017-02-09T00:31:46.093Z,89.97
2017-02-09T00:32:26.721Z,89.97
2017-02-09T00:33:07.367Z,90.25
2017-02-09T00:33:47.937Z,90.06
2017-02-09T00:34:28.585Z,90.25
2017-02-09T00:35:09.225Z,90.16
2017-02-09T00:35:49.801Z,90.35
2017-02-09T00:36:30.441Z,90.16
2017-02-09T00:37:11.074Z,90.16
2017-02-09T00:37:51.654Z,89.5
2017-02-09T00:38:32.290Z,89.59
2017-02-09T00:39:12.925Z,89.4
2017-02-09T00:39:53.504Z,89.69
2017-02-09T00:40:34.157Z,89.69
2017-02-09T00:41:14.746Z,89.78
2017-02-09T00:41:55.339Z,89.5
2017-02-09T00:42:35.941Z,89.5
2017-02-09T00:43:17.343Z,89.69
2017-02-09T00:43:57.974Z,89.97
2017-02-09T00:44:38.523Z,90.06
2017-02-09T00:45:19.136Z,89.87
2017-02-09T00:45:59.717Z,89.4
2017-02-09T00:46:40.426Z,89.22
2017-02-09T00:47:20.991Z,89.22
2017-02-09T00:48:01.642Z,89.4
2017-02-09T00:48:42.275Z,89.5
2017-02-09T00:49:22.860Z,89.4
2017-02-09T00:50:03.495Z,89.59
2017-02-09T00:50:44.054Z,89.69
2017-02-09T00:51:24.612Z,89.5
2017-02-09T00:52:05.255Z,89.12
2017-02-09T00:52:45.845Z,89.12
2017-02-09T00:53:26.409Z,89.4
2017-02-09T00:54:07.001Z,89.59
2017-02-09T00:54:47.649Z,89.5
2017-02-09T00:55:28.222Z,89.31
2017-02-09T00:56:08.855Z,89.4
2017-02-09T00:56:49.448Z,89.31
2017-02-09T00:57:30.048Z,89.22
2017-02-09T00:58:10.604Z,89.5
2017-02-09T00:58:51.273Z,89.31
2017-02-09T00:59:31.865Z,89.69
2017-02-09T01:00:12.561Z,89.5
2017-02-09T01:00:53.136Z,89.59
2017-02-09T01:01:33.790Z,89.5
2017-02-09T01:02:14.370Z,89.78
2017-02-09T01:02:54.966Z,89.59
2017-02-09T01:03:35.541Z,89.5
2017-02-09T01:04:16.194Z,89.22
2017-02-09T01:04:56.781Z,89.22
2017-02-09T01:05:37.431Z,89.03
2017-02-09T01:06:18.077Z,89.31
2017-02-09T01:06:58.736Z,88.84
2017-02-09T01:07:39.391Z,88.84
2017-02-09T01:08:20.651Z,89.12
2017-02-09T01:09:01.314Z,89.03
2017-02-09T01:09:41.958Z,88.74
2017-02-09T01:10:22.568Z,88.84
2017-02-09T01:11:03.106Z,89.03
2017-02-09T01:11:43.776Z,88.74
2017-02-09T01:12:24.383Z,88.84
2017-02-09T01:13:05.077Z,88.84
2017-02-09T01:13:45.647Z,89.12
2017-02-09T01:14:26.297Z,89.03
2017-02-09T01:15:06.872Z,88.84
2017-02-09T01:15:47.431Z,88.65
2017-02-09T01:16:28.152Z,88.55
2017-02-09T01:17:09.729Z,88.46
2017-02-09T01:17:50.372Z,88.74
2017-02-09T01:18:31.030Z,88.65
2017-02-09T01:19:11.686Z,88.65
2017-02-09T01:19:52.337Z,88.55
2017-02-09T01:20:32.925Z,88.55
2017-02-09T01:21:13.521Z,88.46
2017-02-09T01:21:54.096Z,88.46
2017-02-09T01:22:34.743Z,88.84
2017-02-09T01:23:15.331Z,88.46
2017-02-09T01:23:55.918Z,88.46
2017-02-09T01:24:36.490Z,88.46
2017-02-09T01:25:17.151Z,88.36
2017-02-09T01:25:57.797Z,88.46
2017-02-09T01:26:45.342Z,88.46
2017-02-09T01:27:25.966Z,88.65
2017-02-09T01:28:06.623Z,88.55
2017-02-09T01:28:47.291Z,88.65
2017-02-09T01:29:27.924Z,88.65
2017-02-09T01:30:08.515Z,88.65
2017-02-09T01:30:49.110Z,88.36
2017-02-09T01:31:29.713Z,87.98
2017-02-09T01:32:10.330Z,87.79
2017-02-09T01:32:50.927Z,87.61
2017-02-09T01:33:31.514Z,87.98
2017-02-09T01:34:12.084Z,88.08
2017-02-09T01:34:52.738Z,87.7
2017-02-09T01:35:33.372Z,87.89
2017-02-09T01:36:13.927Z,87.61
2017-02-09T01:36:54.503Z,87.98
2017-02-09T01:37:35.134Z,87.61
2017-02-09T01:38:15.696Z,87.89
2017-02-09T01:38:56.249Z,87.7
2017-02-09T01:39:36.880Z,87.7
2017-02-09T01:40:17.431Z,87.98
2017-02-09T01:40:58.103Z,87.89
2017-02-09T01:41:38.740Z,87.79
2017-02-09T01:42:19.300Z,87.89
2017-02-09T01:42:59.968Z,88.27
2017-02-09T01:43:40.598Z,87.79
2017-02-09T01:44:21.161Z,87.42
2017-02-09T01:45:01.840Z,87.61
2017-02-09T01:45:42.516Z,87.61
2017-02-09T01:46:23.196Z,87.7
2017-02-09T01:47:03.772Z,87.51
2017-02-09T01:47:44.349Z,87.42
2017-02-09T01:48:25.012Z,87.51
2017-02-09T01:49:05.629Z,87.42
2017-02-09T01:49:46.223Z,87.51
2017-02-09T01:50:26.874Z,87.61
2017-02-09T01:51:07.466Z,87.61
2017-02-09T01:51:48.027Z,87.7
2017-02-09T01:52:28.690Z,87.13
2017-02-09T01:53:09.323Z,87.13
2017-02-09T01:53:49.892Z,87.04
2017-02-09T01:54:30.525Z,87.23
2017-02-09T01:55:11.179Z,87.13
2017-02-09T01:55:51.749Z,87.13
2017-02-09T01:56:32.403Z,87.13
2017-02-09T01:57:13.061Z,87.42
2017-02-09T01:57:53.735Z,87.23
2017-02-09T01:58:34.365Z,87.23
2017-02-09T01:59:15.021Z,87.13
2017-02-09T01:59:55.593Z,87.32
2017-02-09T02:00:36.289Z,87.32
2017-02-09T02:01:16.953Z,86.94
2017-02-09T02:01:57.521Z,87.13
2017-02-09T02:02:38.175Z,87.13
2017-02-09T02:03:18.769Z,86.94
2017-02-09T02:03:59.373Z,87.23
2017-02-09T02:04:39.938Z,87.13
2017-02-09T02:05:20.638Z,86.66
2017-02-09T02:06:01.324Z,86.85
2017-02-09T02:06:41.890Z,86.76
2017-02-09T02:07:23.581Z,86.66
2017-02-09T02:08:04.197Z,87.13
2017-02-09T02:08:44.775Z,87.23
2017-02-09T02:09:25.426Z,87.32
2017-02-09T02:10:06.058Z,87.32
2017-02-09T02:10:46.628Z,86.66
2017-02-09T02:11:27.274Z,86.66
2017-02-09T02:12:07.910Z,86.66
2017-02-09T02:12:48.476Z,86.66
2017-02-09T02:13:29.139Z,86.66
2017-02-09T02:14:09.770Z,86.66
2017-02-09T02:14:50.319Z,87.04
2017-02-09T02:15:30.988Z,86.94
2017-02-09T02:16:11.639Z,87.04
2017-02-09T02:16:52.292Z,86.85
2017-02-09T02:17:32.957Z,87.04
2017-02-09T02:18:13.596Z,86.76
2017-02-09T02:18:54.371Z,87.42
2017-02-09T02:19:35.038Z,86.66
2017-02-09T02:20:15.676Z,87.51
2017-02-09T02:20:56.301Z,86.76
2017-02-09T02:21:36.867Z,86.76
2017-02-09T02:22:17.511Z,87.51
2017-02-09T02:22:58.156Z,86.76
2017-02-09T02:23:38.741Z,86.85
2017-02-09T02:24:19.386Z,86.85
2017-02-09T02:25:00.121Z,87.13
2017-02-09T02:25:40.868Z,87.04
2017-02-09T02:26:21.625Z,86.85
2017-02-09T02:27:02.290Z,86.94
2017-02-09T02:27:43.050Z,86.85
2017-02-09T02:28:23.784Z,86.85
2017-02-09T02:29:04.546Z,86.76
2017-02-09T02:29:45.319Z,86.47
2017-02-09T02:30:26.056Z,86.85
2017-02-09T02:31:06.832Z,86.76
2017-02-09T02:31:47.565Z,86.76
2017-02-09T02:32:28.214Z,86.85
2017-02-09T02:33:08.975Z,86.66
2017-02-09T02:33:49.728Z,86.85
2017-02-09T02:34:30.389Z,86.66
2017-02-09T02:35:10.960Z,86.66
2017-02-09T02:35:51.697Z,86.94
2017-02-09T02:36:32.438Z,86.94
2017-02-09T02:37:13.002Z,86.85
2017-02-09T02:37:53.674Z,87.04
2017-02-09T02:38:34.306Z,86.94
2017-02-09T02:39:14.863Z,87.04
2017-02-09T02:39:55.522Z,86.66
2017-02-09T02:40:36.161Z,86.19
2017-02-09T02:41:16.722Z,86.29
2017-02-09T02:41:57.406Z,86.29
2017-02-09T02:42:38.033Z,86.38
2017-02-09T02:43:18.723Z,86.19
2017-02-09T02:43:59.327Z,86.1
2017-02-09T02:44:40.001Z,86.29
2017-02-09T02:45:20.652Z,86.1
2017-02-09T02:46:01.311Z,86.29
2017-02-09T02:46:41.933Z,86.29
2017-02-09T02:47:22.604Z,86.19
2017-02-09T02:48:03.255Z,86.29
2017-02-09T02:48:43.908Z,86.19
2017-02-09T02:49:24.562Z,86.47
2017-02-09T02:50:05.236Z,86.38
2017-02-09T02:50:45.879Z,86.47
2017-02-09T02:51:26.548Z,86.19
2017-02-09T02:52:07.178Z,86.66
2017-02-09T02:52:47.826Z,86.38
2017-02-09T02:53:28.499Z,86.29
2017-02-09T02:54:09.140Z,86.47
2017-02-09T02:54:49.784Z,86.19
2017-02-09T02:55:30.366Z,86.57
2017-02-09T02:56:10.968Z,85.91
2017-02-09T02:56:51.536Z,85.81
2017-02-09T02:57:32.190Z,86
2017-02-09T02:58:12.790Z,86
2017-02-09T02:58:53.379Z,86.1
2017-02-09T02:59:33.934Z,86
2017-02-09T03:00:14.599Z,86
2017-02-09T03:00:55.246Z,86
2017-02-09T03:01:35.904Z,85.91
2017-02-09T03:02:16.568Z,85.53
2017-02-09T03:02:57.218Z,86.1
2017-02-09T03:03:37.863Z,85.81
2017-02-09T03:04:18.512Z,85.81
2017-02-09T03:04:59.171Z,85.81
2017-02-09T03:05:39.829Z,85.43
2017-02-09T03:06:20.470Z,85.81
2017-02-09T03:07:01.135Z,85.91
2017-02-09T03:07:41.799Z,85.91
2017-02-09T03:08:22.429Z,85.81
2017-02-09T03:09:03.084Z,85.91
2017-02-09T03:09:43.765Z,85.91
2017-02-09T03:10:24.399Z,86
2017-02-09T03:11:05.047Z,86
2017-02-09T03:11:45.701Z,85.81
2017-02-09T03:12:26.351Z,85.81
2017-02-09T03:13:07.006Z,85.81
2017-02-09T03:13:47.658Z,86
2017-02-09T03:14:28.392Z,85.91
2017-02-09T03:15:08.963Z,85.81
2017-02-09T03:15:49.615Z,85.72
2017-02-09T03:16:30.274Z,85.91
2017-02-09T03:17:10.904Z,85.91
2017-02-09T03:17:51.507Z,85.91
2017-02-09T03:18:32.168Z,85.91
2017-02-09T03:19:12.822Z,86
2017-02-09T03:19:53.475Z,85.91
2017-02-09T03:20:34.046Z,85.91
2017-02-09T03:21:14.639Z,85.91
2017-02-09T03:21:55.269Z,86
2017-02-09T03:22:35.850Z,86
2017-02-09T03:23:16.512Z,86
2017-02-09T03:23:57.124Z,85.81
2017-02-09T03:24:37.702Z,85.81
2017-02-09T03:25:18.347Z,85.81
2017-02-09T03:25:59.007Z,85.91
2017-02-09T03:26:39.654Z,85.81
2017-02-09T03:27:20.317Z,85.81
2017-02-09T03:28:00.967Z,85.43
2017-02-09T03:28:41.610Z,85.81
2017-02-09T03:29:22.267Z,85.62
2017-02-09T03:30:02.924Z,85.43
2017-02-09T03:30:43.519Z,85.62
2017-02-09T03:31:24.111Z,85.62
2017-02-09T03:32:04.668Z,85.62
2017-02-09T03:32:45.326Z,85.62
2017-02-09T03:33:25.923Z,85.62
2017-02-09T03:34:06.507Z,85.72
2017-02-09T03:34:47.058Z,85.81
2017-02-09T03:35:27.634Z,85.62
2017-02-09T03:36:08.218Z,85.81
2017-02-09T03:36:48.815Z,85.81
2017-02-09T03:37:29.390Z,85.91
2017-02-09T03:38:09.989Z,85.81
2017-02-09T03:38:50.551Z,85.81
2017-02-09T03:39:31.113Z,86
2017-02-09T03:40:11.666Z,85.72
2017-02-09T03:40:52.245Z,85.91
2017-02-09T03:41:32.821Z,86
2017-02-09T03:42:13.385Z,85.91
2017-02-09T03:42:53.949Z,85.81
2017-02-09T03:43:34.507Z,85.81
2017-02-09T03:44:15.070Z,85.91
2017-02-09T03:44:55.648Z,86.1
2017-02-09T03:45:36.218Z,86
2017-02-09T03:46:16.759Z,86.1
2017-02-09T03:46:57.324Z,85.34
2017-02-09T03:47:37.903Z,86
2017-02-09T03:48:18.471Z,85.62
2017-02-09T03:48:59.044Z,85.34
2017-02-09T03:49:39.614Z,85.72
2017-02-09T03:50:20.195Z,85.24
2017-02-09T03:51:00.760Z,85.05
2017-02-09T03:51:41.343Z,85.15
2017-02-09T03:52:21.876Z,85.34
2017-02-09T03:53:02.455Z,85.24
2017-02-09T03:53:43.037Z,85.43
2017-02-09T03:54:23.611Z,85.43
2017-02-09T03:55:04.165Z,85.24
2017-02-09T03:55:44.741Z,85.43
2017-02-09T03:56:25.317Z,85.34
2017-02-09T03:57:05.894Z,85.34
2017-02-09T03:57:47.449Z,84.96
2017-02-09T03:58:28.020Z,84.96
2017-02-09T03:59:08.591Z,85.05
2017-02-09T03:59:49.160Z,84.86
2017-02-09T04:00:29.712Z,84.68
2017-02-09T04:01:10.289Z,84.58
2017-02-09T04:01:50.867Z,85.05
2017-02-09T04:02:31.426Z,84.49
2017-02-09T04:03:12.006Z,84.86
2017-02-09T04:03:52.544Z,85.05
2017-02-09T04:04:33.105Z,84.86
2017-02-09T04:05:13.662Z,84.39
2017-02-09T04:05:54.233Z,84.58
2017-02-09T04:06:34.818Z,84.58
2017-02-09T04:07:15.407Z,84.39
2017-02-09T04:07:55.971Z,84.77
2017-02-09T04:08:36.536Z,84.73
2017-02-09T04:09:17.112Z,84.58
2017-02-09T04:09:57.675Z,84.39
2017-02-09T04:10:38.234Z,84.77
2017-02-09T04:11:18.805Z,84.58
2017-02-09T04:11:59.374Z,84.58
2017-02-09T04:12:39.949Z,84.86
2017-02-09T04:13:20.553Z,84.86
2017-02-09T04:14:01.128Z,84.68
2017-02-09T04:14:41.695Z,84.92
2017-02-09T04:15:22.276Z,84.86
2017-02-09T04:16:03.740Z,84.86
2017-02-09T04:16:44.315Z,84.64
2017-02-09T04:17:24.882Z,84.35
2017-02-09T04:18:05.456Z,83.92
2017-02-09T04:18:46.027Z,84.2
2017-02-09T04:19:26.595Z,84.07
2017-02-09T04:20:07.165Z,84.39
2017-02-09T04:20:47.748Z,84.26
2017-02-09T04:21:28.325Z,84.26
2017-02-09T04:22:08.919Z,84.49
2017-02-09T04:22:49.493Z,84.26
2017-02-09T04:23:30.070Z,84.49
2017-02-09T04:24:10.640Z,84.11
2017-02-09T04:24:52.214Z,84.16
2017-02-09T04:25:32.798Z,84.49
2017-02-09T04:26:13.376Z,84.35
2017-02-09T04:26:53.945Z,84.39
2017-02-09T04:27:34.512Z,84.3
2017-02-09T04:28:15.082Z,84.3
2017-02-09T04:28:56.633Z,84.96
2017-02-09T04:29:37.227Z,84.35
2017-02-09T04:30:17.805Z,83.83
2017-02-09T04:30:59.234Z,84.54
2017-02-09T04:31:39.806Z,83.78
2017-02-09T04:32:20.348Z,84.07
2017-02-09T04:33:00.972Z,84.07
2017-02-09T04:33:41.555Z,84.35
2017-02-09T04:34:22.131Z,83.97
2017-02-09T04:35:02.722Z,83.88
2017-02-09T04:35:43.294Z,84.45
2017-02-09T04:36:23.880Z,84.35
2017-02-09T04:37:04.430Z,84.49
2017-02-09T04:37:44.986Z,84.39
2017-02-09T04:38:25.567Z,84.54
2017-02-09T04:39:06.124Z,84.54
2017-02-09T04:39:46.699Z,84.54
2017-02-09T04:40:27.273Z,84.35
2017-02-09T04:41:07.849Z,84.16
2017-02-09T04:41:48.408Z,84.35
2017-02-09T04:42:28.997Z,84.35
2017-02-09T04:43:09.583Z,83.88
2017-02-09T04:43:50.157Z,84.07
2017-02-09T04:44:30.718Z,84.07
2017-02-09T04:45:11.283Z,83.78
2017-02-09T04:45:51.851Z,84.07
2017-02-09T04:46:32.430Z,84.45
2017-02-09T04:47:12.998Z,84.16
2017-02-09T04:47:53.566Z,84.45
2017-02-09T04:48:34.141Z,84.64
2017-02-09T04:49:14.699Z,84.64
2017-02-09T04:49:55.281Z,84.68
2017-02-09T04:50:35.850Z,84.54
2017-02-09T04:51:16.414Z,85.01
2017-02-09T04:51:56.984Z,84.82
2017-02-09T04:52:37.559Z,84.82
2017-02-09T04:53:18.125Z,84.82
2017-02-09T04:53:58.709Z,84.54
2017-02-09T04:54:39.274Z,84.54
2017-02-09T04:55:19.842Z,84.64
2017-02-09T04:56:00.428Z,84.68
2017-02-09T04:56:41.010Z,84.68
2017-02-09T04:57:21.605Z,84.73
2017-02-09T04:58:02.177Z,84.64
2017-02-09T04:58:42.757Z,84.73
2017-02-09T04:59:23.327Z,84.68
2017-02-09T05:00:03.898Z,84.68
2017-02-09T05:00:44.490Z,84.68
2017-02-09T05:01:25.065Z,84.39
2017-02-09T05:02:05.637Z,84.82
2017-02-09T05:02:46.215Z,85.05
2017-02-09T05:03:26.757Z,84.86
2017-02-09T05:04:07.348Z,84.64
2017-02-09T05:04:47.916Z,84.77
2017-02-09T05:05:28.476Z,84.64
2017-02-09T05:06:09.042Z,85.05
2017-02-09T05:06:49.612Z,84.64
2017-02-09T05:07:30.198Z,85.01
2017-02-09T05:08:10.770Z,84.73
2017-02-09T05:08:51.346Z,84.82
2017-02-09T05:09:31.913Z,84.73
2017-02-09T05:10:12.492Z,84.86
2017-02-09T05:10:53.055Z,84.58
2017-02-09T05:11:33.635Z,84.82
2017-02-09T05:12:14.194Z,84.82
2017-02-09T05:12:54.763Z,84.82
2017-02-09T05:13:35.321Z,84.73
2017-02-09T05:14:15.894Z,84.82
2017-02-09T05:14:56.452Z,84.68
2017-02-09T05:15:37.039Z,85.05
2017-02-09T05:16:17.599Z,84.64
2017-02-09T05:16:58.177Z,84.68
2017-02-09T05:17:38.751Z,84.64
2017-02-09T05:18:19.384Z,84.77
2017-02-09T05:18:59.969Z,84.64
2017-02-09T05:19:40.542Z,84.82
2017-02-09T05:20:21.112Z,85.01
2017-02-09T05:21:01.691Z,85.01
2017-02-09T05:21:42.290Z,84.92
2017-02-09T05:22:22.864Z,85.01
2017-02-09T05:23:03.434Z,85.49
2017-02-09T05:23:44.021Z,85.39
2017-02-09T05:24:24.624Z,84.96
2017-02-09T05:25:05.175Z,84.92
2017-02-09T05:25:45.765Z,85.01
2017-02-09T05:26:26.338Z,84.92
2017-02-09T05:27:06.900Z,84.73
2017-02-09T05:27:47.490Z,84.86
2017-02-09T05:28:28.069Z,84.92
2017-02-09T05:29:08.661Z,85.01
2017-02-09T05:29:49.226Z,84.92
2017-02-09T05:30:29.809Z,84.92
2017-02-09T05:31:10.373Z,84.92
2017-02-09T05:31:50.935Z,84.92
2017-02-09T05:32:31.508Z,84.73
2017-02-09T05:33:12.104Z,85.01
2017-02-09T05:33:52.653Z,84.64
2017-02-09T05:34:33.226Z,85.01
2017-02-09T05:35:13.813Z,84.35
2017-02-09T05:35:54.384Z,84.73
2017-02-09T05:36:34.932Z,84.64
2017-02-09T05:37:15.508Z,84.92
2017-02-09T05:37:56.093Z,84.64
2017-02-09T05:38:36.663Z,84.73
2017-02-09T05:39:17.237Z,84.64
2017-02-09T05:39:57.792Z,84.92
2017-02-09T05:40:38.368Z,84.82
2017-02-09T05:41:18.907Z,84.82
2017-02-09T05:41:59.472Z,84.92
2017-02-09T05:42:40.023Z,84.82
2017-02-09T05:43:20.614Z,84.82
2017-02-09T05:44:01.179Z,84.82
2017-02-09T05:44:41.766Z,84.92
2017-02-09T05:45:22.331Z,84.64
2017-02-09T05:46:02.908Z,84.82
2017-02-09T05:46:43.482Z,84.92
2017-02-09T05:47:24.049Z,84.82
2017-02-09T05:48:04.620Z,84.82
2017-02-09T05:48:45.188Z,84.92
2017-02-09T05:49:27.768Z,84.64
2017-02-09T05:50:08.362Z,84.82
2017-02-09T05:50:48.936Z,84.64
2017-02-09T05:51:29.511Z,84.73
2017-02-09T05:52:10.072Z,84.64
2017-02-09T05:52:50.644Z,84.64
2017-02-09T05:53:32.220Z,84.54
2017-02-09T05:54:13.777Z,84.92
2017-02-09T05:54:54.353Z,84.73
2017-02-09T05:55:38.071Z,84.35
2017-02-09T05:56:19.484Z,84.73
2017-02-09T05:57:00.052Z,85.01
2017-02-09T05:57:40.623Z,84.35
2017-02-09T05:58:21.195Z,84.45
2017-02-09T05:59:01.768Z,84.16
2017-02-09T05:59:42.338Z,84.07
2017-02-09T06:00:22.906Z,84.35
2017-02-09T06:01:03.484Z,84.16
2017-02-09T06:01:44.051Z,84.07
2017-02-09T06:02:24.632Z,84.16
2017-02-09T06:03:05.194Z,84.07
2017-02-09T06:03:45.758Z,84.07
2017-02-09T06:04:26.389Z,84.26
2017-02-09T06:05:06.963Z,83.97
2017-02-09T06:05:47.543Z,84.26
2017-02-09T06:06:28.106Z,84.26
2017-02-09T06:07:08.683Z,84.16
2017-02-09T06:07:49.256Z,84.35
2017-02-09T06:08:29.836Z,83.88
2017-02-09T06:09:10.388Z,84.16
2017-02-09T06:09:50.999Z,83.97
2017-02-09T06:10:31.616Z,84.26
2017-02-09T06:11:12.191Z,84.35
2017-02-09T06:11:52.761Z,84.35
2017-02-09T06:12:33.343Z,84.26
2017-02-09T06:13:13.909Z,84.26
2017-02-09T06:13:54.473Z,84.45
2017-02-09T06:14:35.051Z,84.45
2017-02-09T06:15:15.626Z,84.26
2017-02-09T06:15:56.205Z,83.88
2017-02-09T06:16:36.789Z,83.97
2017-02-09T06:17:17.360Z,83.97
2017-02-09T06:17:57.931Z,84.07
2017-02-09T06:18:38.503Z,83.97
2017-02-09T06:19:19.071Z,84.07
2017-02-09T06:19:59.673Z,83.88
2017-02-09T06:20:40.245Z,84.07
2017-02-09T06:21:20.964Z,84.35
2017-02-09T06:22:01.533Z,83.97
2017-02-09T06:22:42.143Z,84.07
2017-02-09T06:23:22.748Z,84.07
2017-02-09T06:24:03.299Z,84.45
2017-02-09T06:24:43.852Z,84.64
2017-02-09T06:25:24.438Z,84.92
2017-02-09T06:26:05.010Z,84.92
2017-02-09T06:26:45.575Z,84.73
2017-02-09T06:27:26.151Z,84.82
2017-02-09T06:28:06.723Z,84.64
2017-02-09T06:28:47.298Z,84.92
2017-02-09T06:29:27.863Z,84.92
2017-02-09T06:30:08.446Z,84.73
2017-02-09T06:30:49.011Z,84.82
2017-02-09T06:31:29.576Z,84.73
2017-02-09T06:32:10.147Z,84.82
2017-02-09T06:32:50.734Z,84.64
2017-02-09T06:33:31.296Z,84.73
2017-02-09T06:34:11.900Z,84.73
2017-02-09T06:34:52.473Z,84.82
2017-02-09T06:35:33.081Z,84.92
2017-02-09T06:36:13.655Z,84.64
2017-02-09T06:36:54.303Z,84.82
2017-02-09T06:37:34.874Z,84.82
2017-02-09T06:38:15.464Z,84.82
2017-02-09T06:38:56.023Z,84.82
2017-02-09T06:39:36.586Z,84.73
2017-02-09T06:40:17.159Z,84.82
2017-02-09T06:40:57.751Z,84.54
2017-02-09T06:41:38.329Z,84.54
2017-02-09T06:42:18.898Z,84.73
2017-02-09T06:42:59.474Z,84.26
2017-02-09T06:43:40.066Z,84.92
2017-02-09T06:44:20.632Z,84.82
2017-02-09T06:45:01.213Z,84.64
2017-02-09T06:45:41.771Z,84.82
2017-02-09T06:46:22.401Z,84.54
2017-02-09T06:47:02.957Z,84.92
2017-02-09T06:47:43.547Z,84.64
2017-02-09T06:48:24.111Z,84.73
2017-02-09T06:49:04.690Z,84.64
2017-02-09T06:49:45.255Z,84.64
2017-02-09T06:50:25.819Z,84.64
2017-02-09T06:51:06.419Z,85.01
2017-02-09T06:51:46.977Z,84.73
2017-02-09T06:52:27.558Z,84.64
2017-02-09T06:53:08.152Z,84.64
2017-02-09T06:53:48.717Z,84.64
2017-02-09T06:54:29.291Z,85.01
2017-02-09T06:55:09.886Z,85.01
2017-02-09T06:55:50.574Z,85.01
2017-02-09T06:56:31.195Z,84.82
2017-02-09T06:57:11.767Z,84.54
2017-02-09T06:57:52.362Z,84.92
2017-02-09T06:58:32.955Z,84.82
2017-02-09T06:59:13.530Z,84.82
2017-02-09T06:59:54.177Z,84.82
2017-02-09T07:00:34.765Z,85.01
2017-02-09T07:01:15.457Z,84.82
2017-02-09T07:01:56.044Z,84.82
2017-02-09T07:02:36.678Z,84.92
2017-02-09T07:03:17.277Z,84.73
2017-02-09T07:03:57.968Z,84.73
2017-02-09T07:04:38.536Z,84.64
2017-02-09T07:05:19.224Z,84.64
2017-02-09T07:05:59.886Z,85.01
2017-02-09T07:06:40.536Z,84.73
2017-02-09T07:07:21.186Z,84.64
2017-02-09T07:08:01.837Z,84.73
2017-02-09T07:08:42.493Z,85.01
2017-02-09T07:09:23.143Z,84.92
2017-02-09T07:10:03.805Z,85.01
2017-02-09T07:10:44.448Z,85.39
2017-02-09T07:11:25.075Z,85.39
2017-02-09T07:12:05.741Z,84.92
2017-02-09T07:12:46.384Z,84.92
2017-02-09T07:13:27.028Z,85.58
2017-02-09T07:14:07.691Z,85.39
2017-02-09T07:14:48.328Z,85.58
2017-02-09T07:15:28.994Z,85.3
2017-02-09T07:16:09.628Z,85.01
2017-02-09T07:16:50.202Z,85.3
2017-02-09T07:17:30.857Z,85.3
2017-02-09T07:18:11.478Z,85.39
2017-02-09T07:18:52.021Z,85.39
2017-02-09T07:19:32.713Z,84.92
2017-02-09T07:20:13.331Z,84.92
2017-02-09T07:20:53.907Z,85.01
2017-02-09T07:21:34.559Z,84.82
2017-02-09T07:22:15.202Z,84.64
2017-02-09T07:22:55.877Z,85.01
2017-02-09T07:23:36.515Z,84.73
2017-02-09T07:24:17.172Z,84.73
2017-02-09T07:24:57.832Z,84.82
2017-02-09T07:25:38.468Z,84.82
2017-02-09T07:26:19.075Z,84.82
2017-02-09T07:26:59.661Z,84.82
2017-02-09T07:27:40.202Z,85.01
2017-02-09T07:28:20.890Z,84.64
2017-02-09T07:29:01.577Z,84.92
2017-02-09T07:29:42.299Z,84.73
2017-02-09T07:30:22.925Z,84.82
2017-02-09T07:31:03.618Z,84.82
2017-02-09T07:31:44.203Z,85.01
2017-02-09T07:32:24.810Z,84.82
2017-02-09T07:33:05.434Z,84.54
2017-02-09T07:33:46.097Z,84.82
2017-02-09T07:34:26.910Z,84.64
2017-02-09T07:35:07.732Z,84.73
2017-02-09T07:35:48.586Z,84.64
2017-02-09T07:36:34.116Z,84.73
2017-02-09T07:37:14.696Z,85.05
2017-02-09T07:37:55.494Z,84.54
2017-02-09T07:38:36.205Z,84.35
2017-02-09T07:39:16.861Z,84.73
2017-02-09T07:39:57.569Z,84.82
2017-02-09T07:40:38.274Z,84.64
2017-02-09T07:41:18.963Z,84.92
2017-02-09T07:41:59.584Z,84.92
2017-02-09T07:42:40.489Z,84.92
2017-02-09T07:43:21.176Z,84.92
2017-02-09T07:44:01.828Z,84.64
2017-02-09T07:44:42.546Z,84.92
2017-02-09T07:45:23.246Z,84.35
2017-02-09T07:46:03.942Z,84.64
2017-02-09T07:46:44.545Z,85.01
2017-02-09T07:47:25.105Z,84.35
2017-02-09T07:48:05.753Z,84.45
2017-02-09T07:48:46.347Z,84.07
2017-02-09T07:49:27.049Z,84.35
2017-02-09T07:50:07.670Z,84.35
2017-02-09T07:50:48.409Z,84.16
2017-02-09T07:51:29.062Z,84.16
2017-02-09T07:52:09.955Z,84.54
2017-02-09T07:52:50.698Z,84.35
2017-02-09T07:53:31.701Z,84.58
2017-02-09T07:54:12.423Z,84.01
2017-02-09T07:54:53.041Z,83.92
2017-02-09T07:55:33.689Z,83.97
2017-02-09T07:56:14.312Z,84.16
2017-02-09T07:56:55.008Z,84.2
2017-02-09T07:57:35.747Z,84.11
2017-02-09T07:58:16.597Z,83.69
2017-02-09T07:58:57.248Z,83.97
2017-02-09T07:59:37.920Z,83.73
2017-02-09T08:00:18.495Z,83.83
2017-02-09T08:00:59.163Z,83.92
2017-02-09T08:01:39.762Z,83.92
2017-02-09T08:02:20.385Z,83.92
2017-02-09T08:03:01.073Z,84.01
2017-02-09T08:03:41.676Z,83.92
2017-02-09T08:04:22.252Z,84.01
2017-02-09T08:05:02.905Z,84.01
2017-02-09T08:05:43.486Z,83.36
2017-02-09T08:06:24.185Z,83.64
2017-02-09T08:07:04.757Z,83.36
2017-02-09T08:07:45.412Z,83.07
2017-02-09T08:08:26.007Z,82.98
2017-02-09T08:09:06.593Z,83.45
2017-02-09T08:09:47.165Z,83.45
2017-02-09T08:10:27.799Z,83.26
2017-02-09T08:11:08.413Z,83.64
2017-02-09T08:11:49.052Z,82.79
2017-02-09T08:12:29.705Z,82.79
2017-02-09T08:13:10.324Z,82.88
2017-02-09T08:13:50.977Z,82.88
2017-02-09T08:14:31.643Z,83.17
2017-02-09T08:15:12.285Z,83.07
2017-02-09T08:15:52.934Z,83.17
2017-02-09T08:16:33.510Z,83.17
2017-02-09T08:17:15.146Z,82.98
2017-02-09T08:17:55.736Z,82.98
2017-02-09T08:18:36.373Z,82.88
2017-02-09T08:19:16.944Z,82.79
2017-02-09T08:19:57.539Z,82.88
2017-02-09T08:20:38.137Z,83.17
2017-02-09T08:21:18.768Z,82.98
2017-02-09T08:21:59.421Z,82.6
2017-02-09T08:22:40.041Z,82.88
2017-02-09T08:23:20.636Z,82.41
2017-02-09T08:24:01.266Z,82.79
2017-02-09T08:24:41.809Z,82.79
2017-02-09T08:25:22.386Z,82.03
2017-02-09T08:26:03.022Z,82.41
2017-02-09T08:26:44.253Z,82.41
2017-02-09T08:27:24.831Z,82.41
2017-02-09T08:28:05.524Z,82.41
2017-02-09T08:28:46.151Z,82.31
2017-02-09T08:29:26.800Z,81.93
2017-02-09T08:30:07.460Z,82.41
2017-02-09T08:30:48.093Z,82.31
2017-02-09T08:31:28.662Z,82.31
2017-02-09T08:32:09.337Z,82.5
2017-02-09T08:32:49.970Z,82.5
2017-02-09T08:33:30.528Z,82.41
2017-02-09T08:34:11.171Z,81.93
2017-02-09T08:34:51.816Z,82.41
2017-02-09T08:35:32.368Z,82.22
2017-02-09T08:36:13.049Z,82.22
2017-02-09T08:36:53.731Z,82.22
2017-02-09T08:37:34.321Z,82.31
2017-02-09T08:38:14.891Z,82.03
2017-02-09T08:38:55.545Z,82.03
2017-02-09T08:39:36.139Z,82.22
2017-02-09T08:40:16.740Z,82.41
2017-02-09T08:40:57.298Z,82.6
2017-02-09T08:41:37.963Z,82.5
2017-02-09T08:42:18.601Z,82.03
2017-02-09T08:42:59.218Z,82.03
2017-02-09T08:43:39.837Z,81.84
2017-02-09T08:44:20.452Z,82.03
2017-02-09T08:45:01.026Z,81.93
2017-02-09T08:45:41.662Z,82.03